createdAt,value
2023-03-11T00:00:47.676Z,2.97
2023-03-11T00:03:18.293Z,3.18
2023-03-11T00:05:47.531Z,2.77
2023-03-11T00:08:18.039Z,2.75
2023-03-11T00:10:49.545Z,2.83
2023-03-11T00:13:17.856Z,3.06
2023-03-11T00:15:48.380Z,2.84
2023-03-11T00:18:16.404Z,3.03
2023-03-11T00:20:46.920Z,2.65
2023-03-11T00:23:15.597Z,3.32
2023-03-11T00:25:45.665Z,3.24
2023-03-11T00:28:16.066Z,3.18
2023-03-11T00:30:45.682Z,3.04
2023-03-11T00:33:14.853Z,2.96
2023-03-11T00:35:43.468Z,3.13
2023-03-11T00:38:15.110Z,2.69
2023-03-11T00:40:43.365Z,3.20
2023-03-11T00:43:11.167Z,3.09
2023-03-11T00:45:40.551Z,3.28
2023-03-11T00:48:09.181Z,2.86
2023-03-11T00:50:38.303Z,3.01
2023-03-11T00:53:07.123Z,2.80
2023-03-11T00:55:36.356Z,3.10
2023-03-11T00:58:06.433Z,3.13
2023-03-11T01:00:35.463Z,3.24
2023-03-11T01:03:05.108Z,2.77
2023-03-11T01:05:34.254Z,2.92
2023-03-11T01:08:02.731Z,2.81
2023-03-11T01:10:31.647Z,2.81
2023-03-11T01:13:00.070Z,2.73
2023-03-11T01:15:30.432Z,2.63
2023-03-11T01:17:58.189Z,2.92
2023-03-11T01:20:27.812Z,2.84
2023-03-11T01:22:55.611Z,2.66
2023-03-11T01:25:24.918Z,3.11
2023-03-11T01:27:52.900Z,3.20
2023-03-11T01:30:22.644Z,3.02
2023-03-11T01:32:50.961Z,3.22
2023-03-11T01:35:21.228Z,3.21
2023-03-11T01:37:50.476Z,2.77
2023-03-11T01:40:21.486Z,3.02
2023-03-11T01:42:49.235Z,3.03
2023-03-11T01:45:41.420Z,3.96
2023-03-11T01:48:10.097Z,3.29
2023-03-11T01:50:41.384Z,3.74
2023-03-11T01:53:11.071Z,3.63
2023-03-11T01:55:39.699Z,3.53
2023-03-11T01:58:11.987Z,3.21
2023-03-11T02:00:40.006Z,3.34
2023-03-11T02:03:12.511Z,3.41
2023-03-11T02:05:41.121Z,3.52
2023-03-11T02:08:10.227Z,3.61
2023-03-11T02:10:40.138Z,3.69
2023-03-11T02:13:08.011Z,3.91
2023-03-11T02:15:37.362Z,3.69
2023-03-11T02:18:07.885Z,3.84
2023-03-11T02:20:45.230Z,3.27
2023-03-11T02:23:16.050Z,3.53
2023-03-11T02:25:52.015Z,3.28
2023-03-11T02:28:23.065Z,3.41
2023-03-11T02:30:51.812Z,2.87
2023-03-11T02:33:20.429Z,3.31
2023-03-11T02:35:48.222Z,2.80
2023-03-11T02:38:16.031Z,2.89
2023-03-11T02:40:55.616Z,2.74
2023-03-11T02:43:34.541Z,2.86
2023-03-11T02:46:04.068Z,3.21
2023-03-11T02:48:32.029Z,2.84
2023-03-11T02:51:00.530Z,2.97
2023-03-11T02:53:31.636Z,2.99
2023-03-11T02:55:59.399Z,3.22
2023-03-11T02:58:27.102Z,3.29
2023-03-11T03:00:56.284Z,3.10
2023-03-11T03:03:24.056Z,3.50
2023-03-11T03:05:52.065Z,3.52
2023-03-11T03:08:19.780Z,3.56
2023-03-11T03:10:47.494Z,2.72
2023-03-11T03:13:15.240Z,3.37
2023-03-11T03:15:43.003Z,3.34
2023-03-11T03:18:12.177Z,2.76
2023-03-11T03:20:39.876Z,2.92
2023-03-11T03:23:07.614Z,3.41
2023-03-11T03:25:35.373Z,3.23
2023-03-11T03:28:03.171Z,3.42
2023-03-11T03:30:30.860Z,3.21
2023-03-11T03:32:58.886Z,2.92
2023-03-11T03:35:28.005Z,2.93
2023-03-11T03:37:56.133Z,2.91
2023-03-11T03:40:23.827Z,3.25
2023-03-11T03:42:51.608Z,3.49
2023-03-11T03:45:19.825Z,3.21
2023-03-11T03:47:47.566Z,3.36
2023-03-11T03:50:15.263Z,3.21
2023-03-11T03:52:44.377Z,3.52
2023-03-11T03:55:12.292Z,3.06
2023-03-11T03:57:40.072Z,3.13
2023-03-11T04:00:10.043Z,3.11
2023-03-11T04:02:37.956Z,2.97
2023-03-11T04:05:06.562Z,3.12
2023-03-11T04:07:35.416Z,2.98
2023-03-11T04:10:05.278Z,3.23
2023-03-11T04:12:33.040Z,2.85
2023-03-11T04:15:00.727Z,2.88
2023-03-11T04:17:28.432Z,2.96
2023-03-11T04:19:56.127Z,3.03
2023-03-11T04:22:23.900Z,3.21
2023-03-11T04:24:51.642Z,3.47
2023-03-11T04:27:20.724Z,3.26
2023-03-11T04:29:48.722Z,3.59
2023-03-11T04:32:16.462Z,3.66
2023-03-11T04:34:44.828Z,3.62
2023-03-11T04:37:12.524Z,3.48
2023-03-11T04:39:40.303Z,3.32
2023-03-11T04:42:08.182Z,3.34
2023-03-11T04:44:37.584Z,3.54
2023-03-11T04:47:05.420Z,3.44
2023-03-11T04:49:33.130Z,3.17
2023-03-11T04:52:00.864Z,3.33
2023-03-11T04:54:28.932Z,3.19
2023-03-11T04:56:56.655Z,3.35
2023-03-11T04:59:24.378Z,3.28
2023-03-11T05:01:53.573Z,3.55
2023-03-11T05:04:21.474Z,3.56
2023-03-11T05:06:51.102Z,3.77
2023-03-11T05:09:19.150Z,3.27
2023-03-11T05:11:46.865Z,3.59
2023-03-11T05:14:14.646Z,3.39
2023-03-11T05:16:42.352Z,3.17
2023-03-11T05:19:25.355Z,3.35
2023-03-11T05:21:53.081Z,3.22
2023-03-11T05:24:21.229Z,3.64
2023-03-11T05:26:48.985Z,3.20
2023-03-11T05:29:16.704Z,3.12
2023-03-11T05:31:44.602Z,3.17
2023-03-11T05:34:13.706Z,3.31
2023-03-11T05:36:41.452Z,3.41
2023-03-11T05:39:09.334Z,3.70
2023-03-11T05:41:37.093Z,3.26
2023-03-11T05:44:05.536Z,3.02
2023-03-11T05:46:33.340Z,2.96
2023-03-11T05:49:01.540Z,3.69
2023-03-11T05:51:30.612Z,3.18
2023-03-11T05:53:58.756Z,3.56
2023-03-11T05:56:26.536Z,3.67
2023-03-11T05:58:54.290Z,3.41
2023-03-11T06:01:21.990Z,3.63
2023-03-11T06:03:49.828Z,3.24
2023-03-11T06:06:17.825Z,3.54
2023-03-11T06:08:49.854Z,3.76
2023-03-11T06:11:18.607Z,4.02
2023-03-11T06:13:46.460Z,3.53
2023-03-11T06:16:14.280Z,3.50
2023-03-11T06:18:42.006Z,3.54
2023-03-11T06:21:16.266Z,3.56
2023-03-11T06:23:43.996Z,3.92
2023-03-11T06:26:15.603Z,3.64
2023-03-11T06:28:43.348Z,4.17
2023-03-11T06:31:12.913Z,3.92
2023-03-11T06:33:40.642Z,4.40
2023-03-11T06:36:09.321Z,3.47
2023-03-11T06:38:37.529Z,3.73
2023-03-11T06:41:07.329Z,3.75
2023-03-11T06:43:37.179Z,3.48
2023-03-11T06:46:09.812Z,3.46
2023-03-11T06:48:37.561Z,3.75
2023-03-11T06:51:05.822Z,3.83
2023-03-11T06:53:33.903Z,4.27
2023-03-11T06:56:03.442Z,4.50
2023-03-11T06:58:32.047Z,3.72
2023-03-11T07:01:03.384Z,3.97
2023-03-11T07:03:31.500Z,4.27
2023-03-11T07:05:59.864Z,4.45
2023-03-11T07:08:27.964Z,4.38
2023-03-11T07:11:03.640Z,4.31
2023-03-11T07:13:31.387Z,4.52
2023-03-11T07:16:04.940Z,3.58
2023-03-11T07:18:33.316Z,4.43
2023-03-11T07:21:02.951Z,3.59
2023-03-11T07:23:30.835Z,3.98
2023-03-11T07:25:58.625Z,4.60
2023-03-11T07:28:27.867Z,4.41
2023-03-11T07:30:56.923Z,4.54
2023-03-11T07:33:26.103Z,4.91
2023-03-11T07:35:53.924Z,4.93
2023-03-11T07:38:21.712Z,4.76
2023-03-11T07:40:59.399Z,4.98
2023-03-11T07:43:27.173Z,4.54
2023-03-11T07:46:03.496Z,4.12
2023-03-11T07:48:32.821Z,4.27
2023-03-11T07:51:05.169Z,4.47
2023-03-11T07:53:32.886Z,4.12
2023-03-11T07:56:01.372Z,3.66
2023-03-11T07:58:29.368Z,3.72
2023-03-11T08:00:57.494Z,3.52
2023-03-11T08:03:25.891Z,4.01
2023-03-11T08:05:54.960Z,4.43
2023-03-11T08:08:22.653Z,4.91
2023-03-11T08:10:50.426Z,5.36
2023-03-11T08:13:18.127Z,5.08
2023-03-11T08:15:45.882Z,4.94
2023-03-11T08:18:13.961Z,4.37
2023-03-11T08:20:41.688Z,4.46
2023-03-11T08:23:11.042Z,4.77
2023-03-11T08:25:40.230Z,4.75
2023-03-11T08:28:09.050Z,4.57
2023-03-11T08:30:37.726Z,4.79
2023-03-11T08:33:06.108Z,5.08
2023-03-11T08:35:34.112Z,4.93
2023-03-11T08:38:02.156Z,4.53
2023-03-11T08:40:31.181Z,4.08
2023-03-11T08:42:58.959Z,4.71
2023-03-11T08:45:26.701Z,4.15
2023-03-11T08:47:54.470Z,4.33
2023-03-11T08:50:22.279Z,5.04
2023-03-11T08:52:50.179Z,4.92
2023-03-11T08:55:25.042Z,4.59
2023-03-11T08:57:54.134Z,4.74
2023-03-11T09:00:22.878Z,5.24
2023-03-11T09:02:50.672Z,5.36
2023-03-11T09:05:18.627Z,5.16
2023-03-11T09:07:46.824Z,4.76
2023-03-11T09:10:17.007Z,4.84
2023-03-11T09:12:44.852Z,4.72
2023-03-11T09:15:13.905Z,4.23
2023-03-11T09:17:41.638Z,5.16
2023-03-11T09:20:10.406Z,4.85
2023-03-11T09:22:38.131Z,5.36
2023-03-11T09:25:06.691Z,6.29
2023-03-11T09:27:34.539Z,5.72
2023-03-11T09:30:02.269Z,6.57
2023-03-11T09:32:31.470Z,6.55
2023-03-11T09:35:00.192Z,7.07
2023-03-11T09:37:30.180Z,6.90
2023-03-11T09:39:57.926Z,6.68
2023-03-11T09:42:34.064Z,5.91
2023-03-11T09:45:05.928Z,5.59
2023-03-11T09:47:40.839Z,5.81
2023-03-11T09:50:19.826Z,6.16
2023-03-11T09:52:57.434Z,5.62
2023-03-11T09:55:34.547Z,7.52
2023-03-11T09:58:09.250Z,7.74
2023-03-11T10:00:37.184Z,8.81
2023-03-11T10:03:12.657Z,8.78
2023-03-11T10:05:42.405Z,8.70
2023-03-11T10:08:22.955Z,7.63
2023-03-11T10:11:02.456Z,7.96
2023-03-11T10:13:38.808Z,8.30
2023-03-11T10:16:15.914Z,9.77
2023-03-11T10:18:54.456Z,8.18
2023-03-11T10:21:36.913Z,7.56
2023-03-11T10:24:33.475Z,6.73
2023-03-11T10:27:09.328Z,6.67
2023-03-11T10:29:46.070Z,8.48
2023-03-11T10:32:18.404Z,8.42
2023-03-11T10:34:53.496Z,8.17
2023-03-11T10:37:30.894Z,8.21
2023-03-11T10:40:14.544Z,8.33
2023-03-11T10:42:45.374Z,7.32
2023-03-11T10:45:15.043Z,8.03
2023-03-11T10:47:43.108Z,9.02
2023-03-11T10:50:17.699Z,9.64
2023-03-11T10:53:06.425Z,9.56
2023-03-11T10:55:34.366Z,10.53
2023-03-11T10:58:07.361Z,10.82
2023-03-11T11:00:35.266Z,8.73
2023-03-11T11:03:04.391Z,7.65
2023-03-11T11:05:35.387Z,9.21
2023-03-11T11:08:09.036Z,7.42
2023-03-11T11:10:38.348Z,7.11
2023-03-11T11:13:19.679Z,8.05
2023-03-11T11:16:06.043Z,9.80
2023-03-11T11:18:35.713Z,9.74
2023-03-11T11:21:07.975Z,8.76
2023-03-11T11:23:40.438Z,8.39
2023-03-11T11:26:15.947Z,8.31
2023-03-11T11:28:44.347Z,8.77
2023-03-11T11:31:23.113Z,8.74
2023-03-11T11:33:52.976Z,7.88
2023-03-11T11:36:25.161Z,9.12
2023-03-11T11:38:54.479Z,9.25
2023-03-11T11:41:24.724Z,9.13
2023-03-11T11:43:54.745Z,10.09
2023-03-11T11:46:28.005Z,8.93
2023-03-11T11:49:05.277Z,9.09
2023-03-11T11:51:40.260Z,9.45
2023-03-11T11:54:17.498Z,8.63
2023-03-11T11:56:46.285Z,7.58
2023-03-11T11:59:19.770Z,7.34
2023-03-11T12:01:58.186Z,9.44
2023-03-11T12:04:37.800Z,9.01
2023-03-11T12:07:23.789Z,9.50
2023-03-11T12:10:07.264Z,10.41
2023-03-11T12:12:51.172Z,11.50
2023-03-11T12:15:25.226Z,11.03
2023-03-11T12:18:00.292Z,12.03
2023-03-11T12:20:34.008Z,11.22
2023-03-11T12:23:16.615Z,11.07
2023-03-11T12:25:56.159Z,9.58
2023-03-11T12:28:29.898Z,11.30
2023-03-11T12:31:02.105Z,12.01
2023-03-11T12:33:34.833Z,11.09
2023-03-11T12:36:03.330Z,12.02
2023-03-11T12:38:35.615Z,10.93
2023-03-11T12:41:08.807Z,13.16
2023-03-11T12:44:22.239Z,12.59
2023-03-11T12:47:21.170Z,12.32
2023-03-11T12:49:50.380Z,12.90
2023-03-11T12:52:29.829Z,11.08
2023-03-11T12:55:35.876Z,11.41
2023-03-11T12:58:36.199Z,11.98
2023-03-11T13:01:27.020Z,13.31
2023-03-11T13:04:04.341Z,12.43
2023-03-11T13:07:04.858Z,12.85
2023-03-11T13:09:32.744Z,11.98
2023-03-11T13:12:00.487Z,13.20
2023-03-11T13:14:31.576Z,13.32
2023-03-11T13:17:27.531Z,13.02
2023-03-11T13:19:56.636Z,11.08
2023-03-11T13:22:43.914Z,11.70
2023-03-11T13:25:40.307Z,11.82
2023-03-11T13:28:35.940Z,12.14
2023-03-11T13:31:20.904Z,12.99
2023-03-11T13:33:55.702Z,11.98
2023-03-11T13:36:40.475Z,12.20
2023-03-11T13:39:40.942Z,13.60
2023-03-11T13:42:19.010Z,13.31
2023-03-11T13:44:48.386Z,13.05
2023-03-11T13:47:17.682Z,12.67
2023-03-11T13:49:53.644Z,12.42
2023-03-11T13:52:26.777Z,12.62
2023-03-11T13:55:02.021Z,11.85
2023-03-11T13:57:34.914Z,12.35
2023-03-11T14:00:17.653Z,11.90
2023-03-11T14:02:48.607Z,13.20
2023-03-11T14:05:21.957Z,12.77
2023-03-11T14:07:49.676Z,12.85
2023-03-11T14:10:28.717Z,13.75
2023-03-11T14:13:18.099Z,13.21
2023-03-11T14:15:53.628Z,13.08
2023-03-11T14:18:33.562Z,11.29
2023-03-11T14:21:04.668Z,12.43
2023-03-11T14:23:36.328Z,11.43
2023-03-11T14:26:08.382Z,10.62
2023-03-11T14:28:41.213Z,12.12
2023-03-11T14:31:21.994Z,10.40
2023-03-11T14:33:56.145Z,9.71
2023-03-11T14:36:25.297Z,9.30
2023-03-11T14:38:53.020Z,10.18
2023-03-11T14:41:20.815Z,10.02
2023-03-11T14:43:53.481Z,9.67
2023-03-11T14:46:25.126Z,9.12
2023-03-11T14:48:54.158Z,10.07
2023-03-11T14:51:29.607Z,10.06
2023-03-11T14:54:07.568Z,8.84
2023-03-11T14:56:41.255Z,9.27
2023-03-11T14:59:13.993Z,8.83
2023-03-11T15:01:43.487Z,8.72
2023-03-11T15:04:14.373Z,8.56
2023-03-11T15:06:44.779Z,8.22
2023-03-11T15:09:14.859Z,8.23
2023-03-11T15:11:47.346Z,8.46
2023-03-11T15:14:21.000Z,8.78
2023-03-11T15:16:48.821Z,8.23
2023-03-11T15:19:24.639Z,8.06
2023-03-11T15:21:55.242Z,8.05
2023-03-11T15:24:27.524Z,7.56
2023-03-11T15:26:58.253Z,7.69
2023-03-11T15:29:27.628Z,8.02
2023-03-11T15:31:57.188Z,7.85
2023-03-11T15:34:30.849Z,7.97
2023-03-11T15:37:06.429Z,7.85
2023-03-11T15:39:46.429Z,7.15
2023-03-11T15:42:19.150Z,7.00
2023-03-11T15:45:06.097Z,7.13
2023-03-11T15:47:35.938Z,7.41
2023-03-11T15:50:23.608Z,7.49
2023-03-11T15:52:55.364Z,7.58
2023-03-11T15:55:24.185Z,7.64
2023-03-11T15:57:54.597Z,7.93
2023-03-11T16:00:24.108Z,7.52
2023-03-11T16:02:52.092Z,7.97
2023-03-11T16:05:24.079Z,7.62
2023-03-11T16:07:53.173Z,7.46
2023-03-11T16:10:24.205Z,7.58
2023-03-11T16:12:52.115Z,7.57
2023-03-11T16:15:24.816Z,7.73
2023-03-11T16:17:53.537Z,7.22
2023-03-11T16:20:22.692Z,7.33
2023-03-11T16:22:53.869Z,6.46
2023-03-11T16:25:24.657Z,6.29
2023-03-11T16:27:53.920Z,5.87
2023-03-11T16:30:22.903Z,6.35
2023-03-11T16:32:50.783Z,5.79
2023-03-11T16:35:19.166Z,5.93
2023-03-11T16:37:47.137Z,5.85
2023-03-11T16:40:18.616Z,5.80
2023-03-11T16:42:46.658Z,5.98
2023-03-11T16:45:15.716Z,5.89
2023-03-11T16:47:43.506Z,5.83
2023-03-11T16:50:12.503Z,5.99
2023-03-11T16:52:40.506Z,5.92
2023-03-11T16:55:09.184Z,5.46
2023-03-11T16:57:39.461Z,6.20
2023-03-11T17:00:09.789Z,6.08
2023-03-11T17:02:37.944Z,5.91
2023-03-11T17:05:07.014Z,6.14
2023-03-11T17:07:36.964Z,5.97
2023-03-11T17:10:07.431Z,6.02
2023-03-11T17:12:36.019Z,5.83
2023-03-11T17:15:06.552Z,6.35
2023-03-11T17:17:34.267Z,6.23
2023-03-11T17:20:02.008Z,6.44
2023-03-11T17:22:29.760Z,6.35
2023-03-11T17:24:57.492Z,6.44
2023-03-11T17:27:26.113Z,6.38
2023-03-11T17:29:55.952Z,6.31
2023-03-11T17:32:25.860Z,6.11
2023-03-11T17:34:53.598Z,6.49
2023-03-11T17:37:21.826Z,6.20
2023-03-11T17:39:49.744Z,6.01
2023-03-11T17:42:17.662Z,5.88
2023-03-11T17:44:51.687Z,5.57
2023-03-11T17:47:20.501Z,5.77
2023-03-11T17:49:50.067Z,6.26
2023-03-11T17:52:17.778Z,5.92
2023-03-11T17:54:46.034Z,5.65
2023-03-11T17:57:13.816Z,5.77
2023-03-11T17:59:41.531Z,5.57
2023-03-11T18:02:11.009Z,5.38
2023-03-11T18:04:39.151Z,4.99
2023-03-11T18:07:08.524Z,5.17
2023-03-11T18:09:36.236Z,4.86
2023-03-11T18:12:04.132Z,5.14
2023-03-11T18:14:31.844Z,5.19
2023-03-11T18:16:59.638Z,4.96
2023-03-11T18:19:27.299Z,4.92
2023-03-11T18:21:55.032Z,4.99
2023-03-11T18:24:24.116Z,5.00
2023-03-11T18:26:51.893Z,5.05
2023-03-11T18:29:19.659Z,4.85
2023-03-11T18:31:47.506Z,5.13
2023-03-11T18:34:15.365Z,5.08
2023-03-11T18:36:43.484Z,5.10
2023-03-11T18:39:13.744Z,4.99
2023-03-11T18:41:43.587Z,5.36
2023-03-11T18:44:11.400Z,5.31
2023-03-11T18:46:39.173Z,5.17
2023-03-11T18:49:06.933Z,5.20
2023-03-11T18:51:34.893Z,5.43
2023-03-11T18:54:03.758Z,5.42
2023-03-11T18:56:32.044Z,5.77
2023-03-11T18:59:01.889Z,6.01
2023-03-11T19:01:29.728Z,6.12
2023-03-11T19:03:59.490Z,5.64
2023-03-11T19:06:29.447Z,5.58
2023-03-11T19:08:57.833Z,5.53
2023-03-11T19:11:26.354Z,5.04
2023-03-11T19:13:54.388Z,5.32
2023-03-11T19:16:25.024Z,5.09
2023-03-11T19:18:53.842Z,4.97
2023-03-11T19:21:22.045Z,4.85
2023-03-11T19:23:52.014Z,5.03
2023-03-11T19:26:21.059Z,4.92
2023-03-11T19:28:51.558Z,5.09
2023-03-11T19:31:19.350Z,5.09
2023-03-11T19:33:50.155Z,4.81
2023-03-11T19:36:18.730Z,4.87
2023-03-11T19:38:47.345Z,4.63
2023-03-11T19:41:18.557Z,4.88
2023-03-11T19:43:47.046Z,4.90
2023-03-11T19:46:19.854Z,4.55
2023-03-11T19:48:49.099Z,4.62
2023-03-11T19:51:17.176Z,5.37
2023-03-11T19:53:46.012Z,4.95
2023-03-11T19:56:13.862Z,5.08
2023-03-11T19:58:42.534Z,4.94
2023-03-11T20:01:16.578Z,4.94
2023-03-11T20:03:44.359Z,4.86
2023-03-11T20:06:16.467Z,4.68
2023-03-11T20:08:44.611Z,5.43
2023-03-11T20:11:12.489Z,4.87
2023-03-11T20:13:42.636Z,5.06
2023-03-11T20:16:13.364Z,4.66
2023-03-11T20:18:41.698Z,4.62
2023-03-11T20:21:11.915Z,4.72
2023-03-11T20:23:41.545Z,5.23
2023-03-11T20:26:11.368Z,5.24
2023-03-11T20:28:39.641Z,4.57
2023-03-11T20:31:12.806Z,4.96
2023-03-11T20:33:40.812Z,5.16
2023-03-11T20:36:10.615Z,5.31
2023-03-11T20:38:38.594Z,5.24
2023-03-11T20:41:09.692Z,5.36
2023-03-11T20:43:38.038Z,5.49
2023-03-11T20:46:07.448Z,5.23
2023-03-11T20:48:35.322Z,5.58
2023-03-11T20:51:03.976Z,5.81
2023-03-11T20:53:32.565Z,5.86
2023-03-11T20:56:01.522Z,5.33
2023-03-11T20:58:30.693Z,5.42
2023-03-11T21:00:58.908Z,5.56
2023-03-11T21:03:26.889Z,5.89
2023-03-11T21:05:54.780Z,5.37
2023-03-11T21:08:22.591Z,5.22
2023-03-11T21:10:50.351Z,5.52
2023-03-11T21:13:18.084Z,5.45
2023-03-11T21:15:47.281Z,5.74
2023-03-11T21:18:15.039Z,5.74
2023-03-11T21:20:42.882Z,5.63
2023-03-11T21:23:10.666Z,5.44
2023-03-11T21:25:42.635Z,5.45
2023-03-11T21:28:10.496Z,5.79
2023-03-11T21:30:38.356Z,5.77
2023-03-11T21:33:07.699Z,5.87
2023-03-11T21:35:35.628Z,5.99
2023-03-11T21:38:03.539Z,5.85
2023-03-11T21:40:31.388Z,5.48
2023-03-11T21:42:59.243Z,5.55
2023-03-11T21:45:27.029Z,5.67
2023-03-11T21:47:54.790Z,5.88
2023-03-11T21:50:23.951Z,5.40
2023-03-11T21:52:51.676Z,5.48
2023-03-11T21:55:19.777Z,5.26
2023-03-11T21:57:47.630Z,5.20
2023-03-11T22:00:16.099Z,5.31
2023-03-11T22:02:44.087Z,5.08
2023-03-11T22:05:12.431Z,5.45
2023-03-11T22:07:41.639Z,5.50
2023-03-11T22:10:10.464Z,5.17
2023-03-11T22:12:38.286Z,5.51
2023-03-11T22:15:07.310Z,5.26
2023-03-11T22:17:35.209Z,5.22
2023-03-11T22:20:03.397Z,5.48
2023-03-11T22:22:31.549Z,5.32
2023-03-11T22:25:00.728Z,5.17
2023-03-11T22:27:28.444Z,5.36
2023-03-11T22:29:56.159Z,5.22
2023-03-11T22:32:24.332Z,5.28
2023-03-11T22:34:52.226Z,5.06
2023-03-11T22:37:20.069Z,5.20
2023-03-11T22:39:47.778Z,5.08
2023-03-11T22:42:16.871Z,4.85
2023-03-11T22:44:44.571Z,5.14
2023-03-11T22:47:12.378Z,4.89
2023-03-11T22:49:40.105Z,5.24
2023-03-11T22:52:07.872Z,5.18
2023-03-11T22:54:37.389Z,5.35
2023-03-11T22:57:05.321Z,5.11
2023-03-11T22:59:34.407Z,5.05
2023-03-11T23:02:02.198Z,5.08
2023-03-11T23:04:30.144Z,5.25
2023-03-11T23:06:57.963Z,5.40
2023-03-11T23:09:25.977Z,5.56
2023-03-11T23:11:54.413Z,5.30
2023-03-11T23:14:30.708Z,5.14
2023-03-11T23:17:07.202Z,5.06
2023-03-11T23:19:34.982Z,5.18
2023-03-11T23:22:02.684Z,5.04
2023-03-11T23:24:31.330Z,5.26
2023-03-11T23:26:59.137Z,4.92
2023-03-11T23:29:26.925Z,5.01
2023-03-11T23:31:54.625Z,4.48
2023-03-11T23:34:23.774Z,4.72
2023-03-11T23:36:54.507Z,4.65
2023-03-11T23:39:22.229Z,4.65
2023-03-11T23:41:49.944Z,4.95
2023-03-11T23:44:17.655Z,4.75
2023-03-11T23:46:45.364Z,4.52
2023-03-11T23:49:13.074Z,4.84
2023-03-11T23:51:42.139Z,5.11
2023-03-11T23:54:09.857Z,5.08
2023-03-11T23:56:37.554Z,4.66
2023-03-11T23:59:05.537Z,4.92
